Pilot Boat 183 — FT7120 — position and weather

sailwx.info

Track history (hours):
 
Tides and Currents Weather Stations Pressure Air Temp Water Temp Dewpoint Dewpoint Depression Visibility Wind Speed Wind Dir Waves Ship Positions

Pilot Boat 183

Last reported at 2014-Sep-19 01:22 UTC. Time now 2014-Sep-19 09:50 UTC.
Position N 43°24' E 004°59'.

Length 16 m; draft 1 m.

Type: Pilot. MMSI: 227005760.

Date/timePositionNaut miles runAvg speedWind from/ knotsBaromVisibWave heightAir tempDewpointWater temp
2014-Sep-19 01:22N 43°24' E 004°59'1 1.4
2014-Sep-19 00:33N 43°23' E 004°59'4 2.1
2014-Sep-18 22:33N 43°23' E 004°53'4 4.2
2014-Sep-18 21:33N 43°23' E 004°59'2 0.9
2014-Sep-18 19:33N 43°22' E 004°59'2 2.3
2014-Sep-18 18:33N 43°24' E 004°59'0 0.0
2014-Sep-18 17:34N 43°24' E 004°59'0 0.0
2014-Sep-18 16:26N 43°24' E 004°59'1 0.2
2014-Sep-18 12:33N 43°23' E 004°59'1 0.8
2014-Sep-18 11:33N 43°24' E 004°59'0 0.0
2014-Sep-18 09:24N 43°24' E 004°59'2 2.5
2014-Sep-18 08:34N 43°22' E 004°58'0 0.4
2014-Sep-18 07:34N 43°22' E 004°58'2 1.3
2014-Sep-18 06:07N 43°24' E 004°59'0 0.0
2014-Sep-18 04:12N 43°24' E 004°59'0 0.0
2014-Sep-18 03:33N 43°24' E 004°59'3 3.0
2014-Sep-18 02:33N 43°24' E 004°55'3 1.5
2014-Sep-18 00:33N 43°22' E 004°59'1 1.2
2014-Sep-17 23:33N 43°23' E 004°58'1 1.2
2014-Sep-17 22:34N 43°24' E 004°59'0 0.0
2014-Sep-17 16:33N 43°24' E 004°59'0 0.1
2014-Sep-17 15:20N 43°24' E 004°59'0 0.0
2014-Sep-17 14:11N 43°24' E 004°59'0 0.1
2014-Sep-17 12:34N 43°24' E 004°59'0 0.1
2014-Sep-17 11:33N 43°24' E 004°59'0 0.0
2014-Sep-17 07:12N 43°24' E 004°59'0 0.1
2014-Sep-17 03:34N 43°24' E 004°59'0 0.0
2014-Sep-16 12:20N 43°24' E 004°59'0 0.0
2014-Sep-16 11:20N 43°24' E 004°59'  
2014-Sep-12 08:33N 43°24' E 004°59'0 0.0
2014-Sep-10 08:11N 43°24' E 004°59'0 0.0
2014-Sep-10 07:34N 43°24' E 004°59'  
Track history (hours):
 
Tides and Currents Weather Stations Pressure Air Temp Water Temp Dewpoint Dewpoint Depression Visibility Wind Speed Wind Dir Waves Ship Positions

Pilot Boat 183

Last reported at 2014-Sep-19 01:22 UTC. Time now 2014-Sep-19 09:50 UTC.
Position N 43°24' E 004°59'.

Length 16 m; draft 1 m.

Type: Pilot. MMSI: 227005760.

Date/timePositionNaut miles runAvg speedWind from/ knotsBaromVisibWave heightAir tempDewpointWater temp
2014-Sep-19 01:22N 43°24' E 004°59'1 1.4
2014-Sep-19 00:33N 43°23' E 004°59'4 2.1
2014-Sep-18 22:33N 43°23' E 004°53'4 4.2
2014-Sep-18 21:33N 43°23' E 004°59'2 0.9
2014-Sep-18 19:33N 43°22' E 004°59'2 2.3
2014-Sep-18 18:33N 43°24' E 004°59'0 0.0
2014-Sep-18 17:34N 43°24' E 004°59'0 0.0
2014-Sep-18 16:26N 43°24' E 004°59'1 0.2
2014-Sep-18 12:33N 43°23' E 004°59'1 0.8
2014-Sep-18 11:33N 43°24' E 004°59'0 0.0
2014-Sep-18 09:24N 43°24' E 004°59'2 2.5
2014-Sep-18 08:34N 43°22' E 004°58'0 0.4
2014-Sep-18 07:34N 43°22' E 004°58'2 1.3
2014-Sep-18 06:07N 43°24' E 004°59'0 0.0
2014-Sep-18 04:12N 43°24' E 004°59'0 0.0
2014-Sep-18 03:33N 43°24' E 004°59'3 3.0
2014-Sep-18 02:33N 43°24' E 004°55'3 1.5
2014-Sep-18 00:33N 43°22' E 004°59'1 1.2
2014-Sep-17 23:33N 43°23' E 004°58'1 1.2
2014-Sep-17 22:34N 43°24' E 004°59'0 0.0
2014-Sep-17 16:33N 43°24' E 004°59'0 0.1
2014-Sep-17 15:20N 43°24' E 004°59'0 0.0
2014-Sep-17 14:11N 43°24' E 004°59'0 0.1
2014-Sep-17 12:34N 43°24' E 004°59'0 0.1
2014-Sep-17 11:33N 43°24' E 004°59'0 0.0
2014-Sep-17 07:12N 43°24' E 004°59'0 0.1
2014-Sep-17 03:34N 43°24' E 004°59'0 0.0
2014-Sep-16 12:20N 43°24' E 004°59'0 0.0
2014-Sep-16 11:20N 43°24' E 004°59'  
2014-Sep-12 08:33N 43°24' E 004°59'0 0.0
2014-Sep-10 08:11N 43°24' E 004°59'0 0.0
2014-Sep-10 07:34N 43°24' E 004°59'  

Dump ship's entire track history